Terminal Aerodrome Forecast
Issued by NWS

Home | Current Version | Previous Version | Text Only | Print | Product List | Glossary On
Versions: 1 2 3 4 5 6 7 8 9 10 11 12 13 14 15 16 17 18 19 20 21 22 23 24 25 26 27 28 29 30 31
000
FTAK31 PAFA 280127 AAB
TAFAOR
TAF AMD
PAOR 280127Z 2801/2824 15005KT P6SM VCFG SCT003
      TEMPO 2801/2803 5SM BR BKN002
     FM280900 11003KT P6SM SCT003
     FM281800 11006KT P6SM SCT003 BKN200=

USA.gov is the U.S. government's official web portal to all federal, state and local government web resources and services.